Detroit, Michigan
Traffic Map
Current Weather Conditions
Detroit, Michigan
Overcast Light Rain
Overcast
32°
Feels Like: 24°
Wind Chill: 24° Ceiling: 1900
Heat Index: 32° Visibility: 5mi
Dew Point: 30° Wind: 9mph
Humidity: 93% Direction: 70° (ENE)
Pressure: 30.19in Gusts: 0mph
Raw Report DataCYQG 170100Z 07008KT 5SM -RA BR OVC019 00/M01 A3019 RMK NS8 PRESFR SLP234
Traffic Incident Summary
Active as of:
Severity:
Category:
InformationThere was an issue retrieving the traffic information for this location. Please try a different location or try again shortly.
Advertisements
Track Severe Weather on mobile